createdAt,value
2019-06-10T00:02:51.804Z,10
2019-06-10T00:07:57.954Z,10.2
2019-06-10T00:13:05.630Z,10.6
2019-06-10T00:18:41.720Z,10.3
2019-06-10T00:23:12.859Z,10.5
2019-06-10T00:28:18.044Z,10.5
2019-06-10T00:33:25.068Z,12.6
2019-06-10T00:38:32.600Z,13.3
2019-06-10T00:43:37.664Z,11.7
2019-06-10T00:48:44.972Z,11.5
2019-06-10T00:53:52.109Z,10.8
2019-06-10T00:58:57.402Z,10.9
2019-06-10T01:04:09.251Z,10.7
2019-06-10T01:09:14.845Z,11
2019-06-10T01:14:22.535Z,11.2
2019-06-10T01:19:27.664Z,11.1
2019-06-10T01:24:35.399Z,11.5
2019-06-10T01:29:42.691Z,11.8
2019-06-10T01:34:50.245Z,11.6
2019-06-10T01:39:56.175Z,12
2019-06-10T01:45:02.133Z,11.9
2019-06-10T01:50:08.758Z,12.3
2019-06-10T01:55:16.962Z,12.2
2019-06-10T02:00:25.930Z,12.7
2019-06-10T02:05:23.634Z,13
2019-06-10T02:10:31.041Z,12.6
2019-06-10T02:15:36.131Z,13
2019-06-10T02:20:42.169Z,13.7
2019-06-10T02:25:47.421Z,12.8
2019-06-10T02:30:56.683Z,13.2
2019-06-10T02:35:56.308Z,13
2019-06-10T02:41:05.299Z,13
2019-06-10T02:46:17.161Z,13.9
2019-06-10T02:51:21.864Z,13.8
2019-06-10T02:56:28.309Z,14.6
2019-06-10T03:01:30.449Z,14.5
2019-06-10T03:06:39.287Z,15.5
2019-06-10T03:11:37.546Z,14.5
2019-06-10T03:16:33.811Z,14.6
2019-06-10T03:21:38.913Z,14.1
2019-06-10T03:26:46.523Z,14.1
2019-06-10T03:31:56.155Z,14
2019-06-10T03:37:03.400Z,13.6
2019-06-10T03:42:08.562Z,13.7
2019-06-10T03:47:17.035Z,13
2019-06-10T03:52:28.496Z,13.1
2019-06-10T03:57:28.644Z,12.7
2019-06-10T04:02:28.867Z,12.5
2019-06-10T04:07:35.861Z,11.8
2019-06-10T04:12:43.244Z,12.3
2019-06-10T04:17:48.395Z,12.5
2019-06-10T04:22:53.287Z,12.2
2019-06-10T04:27:56.829Z,12.1
2019-06-10T04:33:03.222Z,11.7
2019-06-10T04:38:08.148Z,11.2
2019-06-10T04:43:13.415Z,10.8
2019-06-10T04:48:20.416Z,10.9
2019-06-10T04:53:21.152Z,10.5
2019-06-10T04:58:29.086Z,10.1
2019-06-10T05:03:29.568Z,10
2019-06-10T05:08:35.698Z,9.9
2019-06-10T05:13:43.553Z,9.7
2019-06-10T05:18:51.540Z,9.6
2019-06-10T05:23:49.174Z,9.8
2019-06-10T05:28:56.454Z,9.5
2019-06-10T05:34:03.377Z,9.3
2019-06-10T05:39:08.497Z,8.7
2019-06-10T05:44:16.069Z,9
2019-06-10T05:49:26.181Z,9.2
2019-06-10T05:54:29.085Z,9
2019-06-10T05:59:29.357Z,8.5
2019-06-10T06:04:32.966Z,8.4
2019-06-10T06:09:33.273Z,8.1
2019-06-10T06:14:39.485Z,8.2
2019-06-10T06:19:46.729Z,7.8
2019-06-10T06:24:53.158Z,7.9
2019-06-10T06:29:59.060Z,7.6
2019-06-10T06:35:03.021Z,8
2019-06-10T06:40:08.133Z,7.6
2019-06-10T06:45:13.531Z,7.8
2019-06-10T06:50:18.530Z,7.8
2019-06-10T06:55:19.339Z,7.2
2019-06-10T07:01:01.238Z,7.1
2019-06-10T07:05:28.178Z,7
2019-06-10T07:10:28.869Z,7.1
2019-06-10T07:15:29.084Z,8
2019-06-10T07:20:29.483Z,7.8
2019-06-10T07:25:37.275Z,7.8
2019-06-10T07:30:52.416Z,7.9
2019-06-10T07:35:44.094Z,7.7
2019-06-10T07:40:49.117Z,7.9
2019-06-10T07:45:57.000Z,8
2019-06-10T07:51:03.632Z,8.2
2019-06-10T07:56:08.888Z,7.9
2019-06-10T08:01:17.487Z,8.5
2019-06-10T08:06:23.806Z,8
2019-06-10T08:11:29.271Z,8.2
2019-06-10T08:16:37.820Z,9.5
2019-06-10T08:21:47.823Z,8
2019-06-10T08:26:47.749Z,9.5
2019-06-10T08:31:54.149Z,8.2
2019-06-10T08:37:04.032Z,7.7
2019-06-10T08:42:09.585Z,7.4
2019-06-10T08:47:17.346Z,8.6
2019-06-10T08:52:25.411Z,7.7
2019-06-10T08:57:30.324Z,7.3
2019-06-10T09:02:41.818Z,8.2
2019-06-10T09:07:54.950Z,7.6
2019-06-10T09:12:55.138Z,7.2
2019-06-10T09:17:56.460Z,6.9
2019-06-10T09:23:22.034Z,7.8
2019-06-10T09:28:03.216Z,6.9
2019-06-10T09:33:08.594Z,6.8
2019-06-10T09:38:15.205Z,7.3
2019-06-10T09:43:23.288Z,7.8
2019-06-10T09:48:28.717Z,6.9
2019-06-10T09:53:49.781Z,6.3
2019-06-10T09:58:47.426Z,6.4
2019-06-10T10:03:59.977Z,6.1
2019-06-10T10:08:59.337Z,6.6
2019-06-10T10:13:58.247Z,5.9
2019-06-10T10:19:06.198Z,6.1
2019-06-10T10:24:15.521Z,6.1
2019-06-10T10:29:20.489Z,5.1
2019-06-10T10:34:26.413Z,4.4
2019-06-10T10:39:33.541Z,5.6
2019-06-10T10:44:38.765Z,4.4
2019-06-10T10:49:44.959Z,4.8
2019-06-10T10:54:56.274Z,4.7
2019-06-10T11:00:04.035Z,4.3
2019-06-10T11:05:09.112Z,3.7
2019-06-10T11:10:16.322Z,4.8
2019-06-10T11:15:23.050Z,3.9
2019-06-10T11:20:28.185Z,3.8
2019-06-10T11:25:34.529Z,3.7
2019-06-10T11:30:39.684Z,3.8
2019-06-10T11:35:48.723Z,3.9
2019-06-10T11:40:54.919Z,3.9
2019-06-10T11:46:07.386Z,3.9
2019-06-10T11:51:05.597Z,3.7
2019-06-10T11:56:12.826Z,3.7
2019-06-10T12:01:18.470Z,3.7
2019-06-10T12:06:26.340Z,3.6
2019-06-10T12:11:34.901Z,3.8
2019-06-10T12:17:23.471Z,3.6
2019-06-10T12:21:44.477Z,3.6
2019-06-10T12:26:53.403Z,3.7
2019-06-10T12:32:02.703Z,3.8
2019-06-10T12:37:15.717Z,3.8
2019-06-10T12:42:14.800Z,3.8
2019-06-10T12:47:19.895Z,3.7
2019-06-10T12:52:27.412Z,3.8
2019-06-10T12:57:33.496Z,3.8
2019-06-10T13:02:38.633Z,4
2019-06-10T13:07:46.439Z,3.7
2019-06-10T13:12:53.951Z,4
2019-06-10T13:18:07.512Z,4
2019-06-10T13:23:23.795Z,3.8
2019-06-10T13:28:09.668Z,3.4
2019-06-10T13:33:15.585Z,4
2019-06-10T13:38:22.765Z,3.4
2019-06-10T13:43:29.680Z,3.5
2019-06-10T13:48:38.118Z,3.4
2019-06-10T13:53:38.295Z,3.5
2019-06-10T13:58:46.366Z,3.8
2019-06-10T14:03:54.552Z,4.1
2019-06-10T14:09:01.366Z,3.6
2019-06-10T14:14:11.554Z,4.3
2019-06-10T14:19:16.739Z,3.7
2019-06-10T14:24:23.756Z,3.7
2019-06-10T14:29:29.031Z,3.4
2019-06-10T14:34:34.055Z,3.3
2019-06-10T14:39:39.404Z,2.9
2019-06-10T14:44:47.541Z,3.3
2019-06-10T14:49:53.944Z,3.2
2019-06-10T14:54:59.293Z,3
2019-06-10T15:00:03.646Z,3.2
2019-06-10T15:05:03.492Z,2.8
2019-06-10T15:10:09.604Z,2.9
2019-06-10T15:15:14.342Z,3
2019-06-10T15:20:22.934Z,3.2
2019-06-10T15:25:29.140Z,2.9
2019-06-10T15:30:37.388Z,2.9
2019-06-10T15:35:43.625Z,2.8
2019-06-10T15:40:48.852Z,2.8
2019-06-10T15:45:56.472Z,3.3
2019-06-10T15:51:03.901Z,3.1
2019-06-10T15:56:36.035Z,3.2
2019-06-10T16:01:10.270Z,3
2019-06-10T16:06:10.065Z,3
2019-06-10T16:11:26.400Z,2.9
2019-06-10T16:16:23.053Z,3.1
2019-06-10T16:21:28.140Z,3.4
2019-06-10T16:26:36.330Z,3.4
2019-06-10T16:31:42.241Z,3.4
2019-06-10T16:36:47.835Z,3.4
2019-06-10T16:41:53.110Z,3.6
2019-06-10T16:46:58.386Z,3.7
2019-06-10T16:52:03.842Z,3.7
2019-06-10T16:57:12.183Z,3.5
2019-06-10T17:02:18.964Z,3.8
2019-06-10T17:07:22.321Z,3.7
2019-06-10T17:12:23.216Z,3.9
2019-06-10T17:17:24.559Z,3.5
2019-06-10T17:22:28.398Z,3.6
2019-06-10T17:27:29.613Z,3.5
2019-06-10T17:32:36.830Z,3.6
2019-06-10T17:37:43.936Z,4
2019-06-10T17:42:49.176Z,4.2
2019-06-10T17:47:55.335Z,4.2
2019-06-10T17:53:03.464Z,4
2019-06-10T17:58:07.362Z,3.8
2019-06-10T18:03:14.193Z,3.9
2019-06-10T18:08:18.107Z,3.8
2019-06-10T18:13:26.172Z,4
2019-06-10T18:18:24.177Z,4.2
2019-06-10T18:23:32.921Z,4.3
2019-06-10T18:29:05.753Z,3.8
2019-06-10T18:33:46.439Z,4.5
2019-06-10T18:38:53.411Z,3.9
2019-06-10T18:43:58.451Z,4.7
2019-06-10T18:49:06.544Z,4.5
2019-06-10T18:54:13.591Z,4.4
2019-06-10T18:59:21.970Z,4.4
2019-06-10T19:04:28.097Z,4.3
2019-06-10T19:09:31.100Z,4.3
2019-06-10T19:14:37.026Z,4.2
2019-06-10T19:19:38.126Z,4.9
2019-06-10T19:24:41.914Z,4.3
2019-06-10T19:29:51.863Z,4.5
2019-06-10T19:34:51.978Z,4.1
2019-06-10T19:40:00.502Z,4.2
2019-06-10T19:45:08.205Z,4.2
2019-06-10T19:50:05.867Z,4.5
2019-06-10T19:55:13.071Z,5.3
2019-06-10T20:00:19.085Z,7
2019-06-10T20:05:26.400Z,5.2
2019-06-10T20:10:34.048Z,3.9
2019-06-10T20:15:47.003Z,4.3
2019-06-10T20:20:49.014Z,4.1
2019-06-10T20:25:48.881Z,4.2
2019-06-10T20:30:56.433Z,4.1
2019-06-10T20:36:17.474Z,4
2019-06-10T20:41:13.513Z,3.7
2019-06-10T20:46:18.543Z,3.7
2019-06-10T20:51:27.007Z,3.6
2019-06-10T20:56:33.499Z,3.9
2019-06-10T21:01:41.277Z,3.4
2019-06-10T21:06:49.497Z,3.6
2019-06-10T21:11:57.341Z,3.8
2019-06-10T21:17:04.070Z,3.9
2019-06-10T21:22:09.295Z,3.7
2019-06-10T21:27:16.328Z,3.7
2019-06-10T21:32:21.240Z,3.8
2019-06-10T21:37:26.113Z,3.4
2019-06-10T21:42:29.766Z,3.6
2019-06-10T21:47:36.864Z,3.7
2019-06-10T21:52:46.085Z,3.8
2019-06-10T21:57:48.742Z,3.7
2019-06-10T22:02:56.241Z,3.7
2019-06-10T22:07:57.190Z,4.4
2019-06-10T22:13:04.065Z,4.2
2019-06-10T22:18:09.173Z,4
2019-06-10T22:23:16.720Z,4
2019-06-10T22:28:23.011Z,4.2
2019-06-10T22:33:28.174Z,4.4
2019-06-10T22:38:33.740Z,4.5
2019-06-10T22:43:38.899Z,4.5
2019-06-10T22:48:46.863Z,4.7
2019-06-10T22:53:58.858Z,4.9
2019-06-10T22:58:58.251Z,5
2019-06-10T23:04:07.412Z,5.1
2019-06-10T23:09:12.849Z,4.8
2019-06-10T23:14:18.242Z,4.6
2019-06-10T23:19:27.090Z,4.7
2019-06-10T23:24:33.146Z,5.1
2019-06-10T23:29:36.800Z,5.1
2019-06-10T23:34:43.160Z,5.5
2019-06-10T23:39:48.188Z,4.8
2019-06-10T23:44:55.156Z,5.3
2019-06-10T23:50:05.121Z,5.4
2019-06-10T23:55:13.906Z,5.3
